Time;durP1;ratioP1;P1;durP2;ratioP2;P2;SDS_P1;SDS_P2;PMS_P1;PMS_P2;Temp;Humidity;BMP_temperature;BMP_pressure;BME280_temperature;BME280_humidity;BME280_pressure;Samples;Min_cycle;Max_cycle;Signal;HPM_P1;HPM_P2
2021/05/27 00:01:04;;;;;;;2.60;2.40;;;11.80;99.90;;;;;;5047937;28;20237;-70
2021/05/27 00:03:31;;;;;;;2.40;2.20;;;11.80;99.90;;;;;;5061004;28;20214;-71
2021/05/27 00:05:58;;;;;;;2.80;2.50;;;11.90;99.90;;;;;;5058724;28;20214;-70
2021/05/27 00:08:25;;;;;;;4.05;2.30;;;12.00;99.90;;;;;;5060169;28;20214;-70
2021/05/27 00:10:52;;;;;;;2.50;2.10;;;12.00;99.90;;;;;;5059707;28;20241;-70
2021/05/27 00:13:19;;;;;;;2.63;2.42;;;12.00;99.90;;;;;;5059796;28;20227;-70
2021/05/27 00:15:46;;;;;;;3.13;2.30;;;12.00;99.90;;;;;;5059705;28;20207;-70
2021/05/27 00:18:13;;;;;;;2.95;2.28;;;12.00;99.90;;;;;;5058172;28;20214;-71
2021/05/27 00:20:41;;;;;;;8.15;2.75;;;12.00;99.90;;;;;;5056031;28;20228;-70
2021/05/27 00:23:08;;;;;;;2.22;2.03;;;12.00;99.90;;;;;;5057152;28;20425;-70
2021/05/27 00:25:35;;;;;;;1.90;1.80;;;12.10;99.90;;;;;;5053830;28;20214;-70
2021/05/27 00:28:02;;;;;;;2.50;2.15;;;12.20;99.90;;;;;;5059393;28;20202;-70
2021/05/27 00:30:29;;;;;;;3.40;1.75;;;12.20;99.90;;;;;;5059968;28;20216;-70
2021/05/27 00:32:56;;;;;;;2.97;2.15;;;12.20;99.90;;;;;;5060185;28;20257;-70
2021/05/27 00:35:23;;;;;;;4.80;1.98;;;12.40;99.90;;;;;;5059292;28;20243;-70
2021/05/27 00:37:50;;;;;;;1.80;1.70;;;12.40;99.90;;;;;;5060278;28;20218;-70
2021/05/27 00:40:18;;;;;;;1.70;1.60;;;12.30;99.90;;;;;;5057976;28;20211;-70
2021/05/27 00:42:46;;;;;;;2.35;2.15;;;12.20;99.90;;;;;;5060308;28;20229;-71
2021/05/27 00:45:16;;;;;;;2.08;1.88;;;12.10;99.90;;;;;;5057848;28;20282;-70
2021/05/27 00:47:44;;;;;;;2.22;1.95;;;12.00;99.90;;;;;;5059417;28;20460;-70
2021/05/27 00:50:23;;;;;;;3.25;1.95;;;12.20;99.90;;;;;;5060801;28;20208;-71
2021/05/27 00:52:52;;;;;;;3.42;1.67;;;12.20;99.90;;;;;;5060849;28;20245;-70
2021/05/27 00:55:22;;;;;;;3.35;2.80;;;12.20;99.90;;;;;;5058848;28;20391;-70
2021/05/27 00:57:49;;;;;;;2.50;2.17;;;12.10;99.90;;;;;;5061132;28;20225;-69
2021/05/27 01:00:20;;;;;;;3.58;2.60;;;12.10;99.90;;;;;;5060203;28;20214;-70
2021/05/27 01:02:47;;;;;;;3.20;1.73;;;12.20;99.90;;;;;;5057789;28;20218;-71
2021/05/27 01:05:16;;;;;;;1.80;1.70;;;12.10;99.90;;;;;;5059490;28;20509;-70
2021/05/27 01:07:44;;;;;;;1.63;1.52;;;12.10;99.90;;;;;;5058286;28;20371;-70
2021/05/27 01:10:13;;;;;;;1.88;1.65;;;12.00;99.90;;;;;;5059484;28;20215;-69
2021/05/27 01:12:40;;;;;;;2.03;1.85;;;11.90;99.90;;;;;;5058299;28;20211;-71
2021/05/27 01:15:31;;;;;;;1.77;1.67;;;12.00;99.90;;;;;;5058779;28;20418;-70
2021/05/27 01:18:01;;;;;;;1.63;1.52;;;12.00;99.90;;;;;;5059101;28;20434;-69
2021/05/27 01:20:30;;;;;;;3.10;1.98;;;12.10;99.90;;;;;;5059279;28;20210;-71
2021/05/27 01:22:58;;;;;;;4.57;2.85;;;12.10;99.90;;;;;;5054113;28;20207;-70
2021/05/27 01:25:25;;;;;;;1.77;1.67;;;12.00;99.90;;;;;;5087418;28;20215;-69
2021/05/27 01:27:52;;;;;;;2.67;2.45;;;12.10;99.90;;;;;;5058747;28;20444;-70
2021/05/27 01:30:20;;;;;;;2.25;2.00;;;12.00;99.90;;;;;;5058790;28;20275;-70
2021/05/27 01:32:47;;;;;;;3.13;2.50;;;11.90;99.90;;;;;;5053347;28;20211;-70
2021/05/27 01:35:18;;;;;;;5.55;2.35;;;12.00;99.90;;;;;;5058233;28;20276;-71
2021/05/27 01:37:46;;;;;;;3.03;2.72;;;12.00;99.90;;;;;;5058173;28;20240;-71
2021/05/27 01:40:15;;;;;;;2.70;2.47;;;12.00;99.90;;;;;;5055988;28;20215;-69
2021/05/27 01:42:43;;;;;;;2.45;1.98;;;12.10;99.90;;;;;;5038862;28;20464;-69
2021/05/27 01:45:10;;;;;;;2.20;2.00;;;12.10;99.90;;;;;;5028440;28;20219;-68
2021/05/27 01:47:38;;;;;;;2.90;1.83;;;12.20;99.90;;;;;;5035070;28;20207;-71
2021/05/27 01:50:08;;;;;;;1.80;1.70;;;12.30;99.90;;;;;;5036339;28;20209;-71
2021/05/27 01:52:36;;;;;;;1.80;1.70;;;12.30;99.90;;;;;;5038474;28;20275;-72
2021/05/27 01:55:04;;;;;;;2.92;2.10;;;12.30;99.90;;;;;;5038504;28;20236;-71
2021/05/27 01:57:31;;;;;;;1.80;1.70;;;12.30;99.90;;;;;;5038679;28;20250;-70
2021/05/27 01:59:59;;;;;;;1.70;1.60;;;12.40;99.90;;;;;;5038647;28;20541;-69
2021/05/27 02:02:26;;;;;;;3.88;1.98;;;12.30;99.90;;;;;;5035910;28;20208;-71
2021/05/27 02:04:53;;;;;;;1.42;1.33;;;12.30;99.90;;;;;;5038217;28;20222;-70
2021/05/27 02:07:20;;;;;;;1.35;1.25;;;12.30;99.90;;;;;;5034803;28;20283;-69
2021/05/27 02:09:47;;;;;;;1.75;1.30;;;12.20;99.90;;;;;;5038780;28;20230;-69
2021/05/27 02:12:14;;;;;;;2.53;1.33;;;12.20;99.90;;;;;;5034507;28;20553;-69
2021/05/27 02:14:41;;;;;;;1.63;1.52;;;12.10;99.90;;;;;;5037279;28;20242;-70
2021/05/27 02:17:08;;;;;;;1.40;1.30;;;12.10;99.90;;;;;;5038429;28;20211;-70
2021/05/27 02:19:35;;;;;;;1.23;1.05;;;12.00;99.90;;;;;;5036950;28;20204;-70
2021/05/27 02:22:02;;;;;;;2.03;1.10;;;12.00;99.90;;;;;;5038525;28;20211;-70
2021/05/27 02:24:29;;;;;;;1.00;0.95;;;12.00;99.90;;;;;;5025933;28;20215;-70
2021/05/27 02:26:56;;;;;;;1.38;1.27;;;11.80;99.90;;;;;;5037859;28;20557;-70
2021/05/27 02:29:23;;;;;;;1.08;1.05;;;11.70;99.90;;;;;;5026866;28;20219;-71
2021/05/27 02:31:50;;;;;;;1.30;1.10;;;11.40;99.90;;;;;;5022507;28;20254;-70
2021/05/27 02:34:18;;;;;;;0.82;0.80;;;11.30;99.90;;;;;;5032347;28;20247;-70
2021/05/27 02:36:45;;;;;;;0.80;0.80;;;11.20;99.90;;;;;;5024886;28;20207;-69
2021/05/27 02:39:12;;;;;;;1.00;1.00;;;11.00;99.90;;;;;;5031229;28;20520;-71
2021/05/27 02:41:40;;;;;;;0.85;0.85;;;10.80;99.90;;;;;;5039585;28;20251;-71
2021/05/27 02:44:07;;;;;;;2.30;1.10;;;10.70;99.90;;;;;;5042896;28;20215;-70
2021/05/27 02:46:35;;;;;;;1.38;1.02;;;10.10;99.90;;;;;;5056130;28;20586;-70
2021/05/27 02:49:02;;;;;;;1.20;1.10;;;10.50;99.90;;;;;;5057214;28;20356;-71
2021/05/27 02:51:29;;;;;;;1.67;1.30;;;10.40;99.90;;;;;;5046453;28;20209;-70
2021/05/27 02:53:56;;;;;;;0.90;0.90;;;10.30;99.90;;;;;;5052295;28;20251;-70
2021/05/27 02:56:24;;;;;;;0.98;0.90;;;10.30;99.90;;;;;;5050964;28;20211;-70
2021/05/27 02:58:53;;;;;;;1.27;1.17;;;10.20;99.90;;;;;;5040334;28;20265;-70
2021/05/27 03:01:20;;;;;;;0.80;0.80;;;10.20;99.90;;;;;;5041004;28;20206;-70
2021/05/27 03:03:47;;;;;;;1.38;1.20;;;10.10;99.90;;;;;;5056044;28;20207;-70
2021/05/27 03:06:14;;;;;;;1.30;1.10;;;10.10;99.90;;;;;;5050190;28;20247;-70
2021/05/27 03:08:41;;;;;;;1.20;1.10;;;10.00;99.90;;;;;;5054165;28;20268;-70
2021/05/27 03:11:09;;;;;;;0.80;0.80;;;10.00;99.90;;;;;;5057209;28;20202;-69
2021/05/27 03:13:37;;;;;;;0.90;0.90;;;10.40;99.90;;;;;;5045966;28;20237;-70
2021/05/27 03:16:04;;;;;;;1.30;1.20;;;10.00;99.90;;;;;;5046461;28;20275;-71
2021/05/27 03:18:31;;;;;;;1.13;1.02;;;9.90;99.90;;;;;;5053827;28;20213;-70
2021/05/27 03:21:00;;;;;;;1.10;1.00;;;9.90;99.90;;;;;;5053290;28;20260;-70
2021/05/27 03:23:27;;;;;;;0.95;0.85;;;9.90;99.90;;;;;;5049737;28;20250;-70
2021/05/27 03:25:54;;;;;;;1.20;1.08;;;9.90;99.90;;;;;;5055325;28;20236;-69
2021/05/27 03:28:23;;;;;;;3.15;1.15;;;9.90;99.90;;;;;;5055923;28;20476;-69
2021/05/27 03:30:50;;;;;;;2.20;2.00;;;9.90;99.90;;;;;;5049221;28;20229;-70
2021/05/27 03:33:18;;;;;;;2.47;1.25;;;9.90;99.90;;;;;;5055963;28;20406;-69
2021/05/27 03:35:45;;;;;;;2.00;1.52;;;10.00;99.90;;;;;;5056741;28;20241;-70
2021/05/27 03:38:12;;;;;;;2.70;1.42;;;9.90;99.90;;;;;;5056232;28;20515;-69
2021/05/27 03:40:39;;;;;;;1.38;1.30;;;9.90;99.90;;;;;;5056619;28;20241;-69
2021/05/27 03:43:07;;;;;;;0.93;0.93;;;10.00;99.90;;;;;;5054998;28;20512;-69
2021/05/27 03:45:35;;;;;;;2.83;1.05;;;10.00;99.90;;;;;;5054872;28;20285;-69
2021/05/27 03:48:02;;;;;;;1.27;1.17;;;10.10;99.90;;;;;;5084116;28;20520;-69
2021/05/27 03:50:30;;;;;;;4.07;1.50;;;10.40;99.90;;;;;;5057168;28;20531;-70
2021/05/27 03:52:59;;;;;;;2.35;1.00;;;10.30;99.90;;;;;;5056403;28;20424;-70
2021/05/27 03:55:28;;;;;;;4.72;1.50;;;10.50;99.90;;;;;;5055928;28;20260;-70
2021/05/27 03:57:57;;;;;;;1.73;1.63;;;10.70;99.90;;;;;;5057570;28;20217;-70
2021/05/27 04:00:45;;;;;;;1.60;1.50;;;10.80;99.90;;;;;;5059957;28;20211;-71
2021/05/27 04:03:13;;;;;;;2.97;1.80;;;10.60;99.90;;;;;;5060522;28;20214;-71
2021/05/27 04:08:25;;;;;;;3.00;1.17;;;11.00;99.90;;;;;;5060709;28;20256;-70
2021/05/27 04:10:53;;;;;;;1.38;1.27;;;11.40;99.90;;;;;;5060378;28;20293;-70
2021/05/27 04:13:20;;;;;;;1.90;1.40;;;11.70;99.90;;;;;;5060725;28;20210;-71
2021/05/27 04:15:48;;;;;;;1.70;1.25;;;11.80;99.90;;;;;;5059615;28;20234;-71
2021/05/27 04:18:19;;;;;;;1.30;1.20;;;12.00;99.90;;;;;;5060127;28;20520;-72
2021/05/27 04:20:51;;;;;;;2.10;1.95;;;12.00;99.90;;;;;;5060129;28;20213;-70
2021/05/27 04:23:38;;;;;;;4.28;1.50;;;12.10;99.90;;;;;;5050055;28;20211;-70
2021/05/27 04:26:08;;;;;;;9.63;1.25;;;12.20;99.90;;;;;;5051163;28;20260;-70
2021/05/27 04:28:37;;;;;;;7.15;1.75;;;12.20;99.90;;;;;;5077749;28;20712;-71
2021/05/27 04:31:13;;;;;;;7.63;1.60;;;12.30;99.90;;;;;;5082360;28;20210;-70
2021/05/27 04:33:54;;;;;;;2.03;1.52;;;12.40;99.90;;;;;;5045653;28;20274;-70
2021/05/27 04:36:22;;;;;;;1.40;1.30;;;12.60;99.90;;;;;;5045137;28;20219;-71
2021/05/27 04:38:50;;;;;;;4.70;1.40;;;12.60;99.90;;;;;;5054084;28;20207;-71
2021/05/27 04:41:19;;;;;;;2.15;1.40;;;12.70;99.90;;;;;;5049910;28;20235;-72
2021/05/27 04:43:57;;;;;;;1.85;1.45;;;12.80;99.90;;;;;;5059886;28;20211;-70
2021/05/27 04:46:25;;;;;;;2.25;1.48;;;12.90;99.90;;;;;;5059673;28;20219;-70
2021/05/27 04:48:52;;;;;;;1.90;1.80;;;13.00;99.90;;;;;;5053224;28;20254;-71
2021/05/27 04:51:19;;;;;;;1.85;1.27;;;13.10;99.90;;;;;;5041556;28;20255;-70
2021/05/27 04:53:46;;;;;;;4.03;1.80;;;13.20;99.90;;;;;;5085014;28;20267;-72
2021/05/27 04:56:14;;;;;;;1.13;1.13;;;13.30;99.90;;;;;;5050263;28;20280;-70
2021/05/27 04:58:41;;;;;;;1.88;1.65;;;13.40;99.90;;;;;;5055371;28;20247;-69
2021/05/27 05:01:08;;;;;;;2.65;2.20;;;13.50;99.90;;;;;;5050099;28;20203;-71
2021/05/27 05:03:35;;;;;;;1.85;1.75;;;13.70;99.90;;;;;;5057732;28;20211;-69
2021/05/27 05:06:02;;;;;;;1.63;1.52;;;13.90;99.40;;;;;;5048559;28;20511;-71
2021/05/27 05:08:29;;;;;;;2.70;2.25;;;14.00;98.90;;;;;;5057029;28;20380;-70
2021/05/27 05:10:56;;;;;;;1.60;1.52;;;14.10;98.70;;;;;;5046188;28;20238;-73
2021/05/27 05:13:23;;;;;;;3.28;1.75;;;14.20;98.10;;;;;;5047461;28;20254;-70
2021/05/27 05:15:50;;;;;;;2.10;2.00;;;14.30;98.20;;;;;;5042387;28;20561;-70
2021/05/27 05:18:17;;;;;;;2.47;2.38;;;14.40;97.80;;;;;;5047140;28;20321;-71
2021/05/27 05:20:51;;;;;;;3.53;2.38;;;14.60;97.50;;;;;;5056997;28;20195;-70
2021/05/27 05:23:19;;;;;;;2.15;2.05;;;14.60;96.90;;;;;;5058213;28;20442;-69
2021/05/27 05:25:46;;;;;;;2.53;2.20;;;14.80;96.70;;;;;;5057989;28;20312;-70
2021/05/27 05:28:14;;;;;;;2.80;2.60;;;15.10;97.00;;;;;;5049587;28;20203;-71
2021/05/27 05:30:42;;;;;;;3.35;3.15;;;15.10;96.10;;;;;;5059250;28;20212;-71
2021/05/27 05:33:09;;;;;;;2.83;2.70;;;15.20;95.50;;;;;;5058033;28;20224;-70
2021/05/27 05:35:37;;;;;;;3.30;3.10;;;15.40;95.50;;;;;;5058885;28;20227;-73
2021/05/27 05:38:05;;;;;;;3.15;2.95;;;15.70;94.70;;;;;;5054678;28;20396;-70
2021/05/27 05:40:33;;;;;;;3.30;3.10;;;15.70;94.60;;;;;;5057559;28;20245;-70
2021/05/27 05:43:01;;;;;;;4.60;2.77;;;15.80;94.80;;;;;;5056486;28;20542;-70
2021/05/27 05:45:28;;;;;;;6.13;3.35;;;15.80;94.40;;;;;;5047673;28;20452;-70
2021/05/27 05:47:57;;;;;;;3.15;2.95;;;15.90;94.30;;;;;;5053131;28;20301;-71
2021/05/27 05:50:45;;;;;;;3.77;3.47;;;16.20;93.60;;;;;;5044424;28;20277;-69
2021/05/27 05:53:23;;;;;;;9.17;3.20;;;16.70;93.00;;;;;;5055392;28;20424;-72
2021/05/27 05:55:54;;;;;;;4.27;3.97;;;17.00;92.10;;;;;;5058839;28;20473;-70
2021/05/27 05:58:21;;;;;;;3.60;3.40;;;16.80;92.20;;;;;;5054905;28;20505;-70
2021/05/27 06:00:51;;;;;;;3.77;3.57;;;16.50;93.20;;;;;;5058630;28;20454;-71
2021/05/27 06:03:18;;;;;;;3.97;3.77;;;16.50;92.80;;;;;;5052567;28;20455;-72
2021/05/27 06:05:45;;;;;;;4.03;3.73;;;16.60;92.40;;;;;;5055739;28;20456;-69
2021/05/27 06:08:13;;;;;;;3.60;3.37;;;17.20;91.60;;;;;;5054472;28;20425;-71
2021/05/27 06:10:40;;;;;;;3.93;3.63;;;17.80;90.90;;;;;;5056667;28;20436;-69
2021/05/27 06:13:07;;;;;;;3.90;3.80;;;18.40;89.50;;;;;;5055501;28;20420;-69
2021/05/27 06:15:36;;;;;;;4.93;4.40;;;18.90;85.40;;;;;;5057992;28;20803;-70
2021/05/27 06:18:03;;;;;;;4.87;4.37;;;19.00;86.50;;;;;;5056416;28;20444;-70
2021/05/27 06:20:31;;;;;;;4.80;4.57;;;19.40;85.80;;;;;;5057790;28;20822;-70
2021/05/27 06:22:58;;;;;;;7.03;4.43;;;20.20;81.20;;;;;;5056713;28;20495;-69
2021/05/27 06:25:26;;;;;;;4.73;4.53;;;20.40;79.30;;;;;;5052915;28;20717;-70
2021/05/27 06:27:54;;;;;;;5.87;5.03;;;21.10;76.00;;;;;;5051867;28;20462;-70
2021/05/27 06:30:22;;;;;;;4.90;4.60;;;22.10;73.80;;;;;;5050420;28;20472;-70
2021/05/27 06:32:50;;;;;;;5.10;4.70;;;22.30;70.90;;;;;;5053760;28;20647;-71
2021/05/27 06:35:17;;;;;;;5.50;5.30;;;22.00;72.00;;;;;;5072975;28;20478;-71
2021/05/27 06:37:45;;;;;;;5.33;5.13;;;21.70;72.50;;;;;;5053530;28;20417;-71
2021/05/27 06:40:30;;;;;;;5.70;5.40;;;21.60;72.80;;;;;;5048607;28;20749;-70
2021/05/27 06:42:57;;;;;;;5.80;5.50;;;21.70;71.00;;;;;;5056435;28;20409;-71
2021/05/27 06:45:25;;;;;;;7.53;5.73;;;22.20;69.60;;;;;;5054793;28;20422;-70
2021/05/27 06:47:52;;;;;;;5.37;5.17;;;23.30;65.80;;;;;;5054630;28;20434;-69
2021/05/27 06:50:38;;;;;;;6.10;5.80;;;25.00;59.70;;;;;;5051427;28;20420;-71
2021/05/27 06:53:08;;;;;;;5.93;5.73;;;26.60;53.30;;;;;;5053578;28;20494;-70
2021/05/27 06:55:36;;;;;;;6.20;6.00;;;27.70;48.70;;;;;;5040499;28;20487;-68
2021/05/27 06:58:04;;;;;;;7.10;6.57;;;28.80;45.60;;;;;;5052379;28;20447;-72
2021/05/27 07:00:32;;;;;;;6.77;6.57;;;28.10;45.20;;;;;;5044365;28;20686;-70
2021/05/27 07:03:01;;;;;;;6.97;6.53;;;27.10;46.60;;;;;;5045886;28;20448;-70
2021/05/27 07:05:28;;;;;;;6.50;6.30;;;27.70;45.70;;;;;;5055343;28;20456;-70
2021/05/27 07:07:57;;;;;;;6.70;6.50;;;28.60;44.60;;;;;;5057748;28;20445;-69
2021/05/27 07:10:24;;;;;;;7.07;6.67;;;28.90;43.30;;;;;;5053839;28;20486;-71
2021/05/27 07:12:53;;;;;;;7.40;7.10;;;28.90;43.90;;;;;;5041259;28;20434;-72
2021/05/27 07:15:22;;;;;;;7.13;6.83;;;30.50;41.80;;;;;;5045951;28;20499;-69
2021/05/27 07:17:50;;;;;;;8.23;7.63;;;32.20;39.00;;;;;;5045226;28;20628;-69
2021/05/27 07:20:18;;;;;;;8.80;8.30;;;34.00;36.00;;;;;;5053887;28;20635;-68
2021/05/27 07:22:47;;;;;;;7.83;7.53;;;35.00;34.30;;;;;;5052286;28;20450;-69
2021/05/27 07:25:15;;;;;;;7.53;7.33;;;35.60;33.10;;;;;;5057147;28;20484;-70
2021/05/27 07:27:45;;;;;;;8.30;7.90;;;35.00;32.50;;;;;;5054076;28;20448;-69
2021/05/27 07:30:12;;;;;;;8.40;8.10;;;35.20;32.50;;;;;;5051532;28;20617;-69
2021/05/27 07:32:42;;;;;;;8.40;8.10;;;35.50;31.80;;;;;;5056657;28;20468;-74
2021/05/27 07:35:10;;;;;;;8.13;7.83;;;35.90;31.20;;;;;;5054220;28;20457;-72
2021/05/27 07:37:37;;;;;;;9.17;8.50;;;34.70;32.00;;;;;;5050870;28;20841;-70
2021/05/27 07:40:05;;;;;;;8.00;7.70;;;33.40;33.30;;;;;;5059609;28;20510;-71
2021/05/27 07:42:33;;;;;;;8.07;7.37;;;30.70;36.90;;;;;;5057858;28;20536;-73
2021/05/27 07:45:02;;;;;;;8.10;7.60;;;28.80;39.90;;;;;;5049271;28;20448;-71
2021/05/27 07:47:31;;;;;;;7.23;6.83;;;26.80;42.70;;;;;;5059555;28;20445;-69
2021/05/27 07:50:02;;;;;;;6.80;6.50;;;25.30;45.40;;;;;;5059852;28;20438;-69
2021/05/27 07:52:30;;;;;;;7.27;5.67;;;25.50;44.80;;;;;;5060295;28;20478;-70
2021/05/27 07:54:57;;;;;;;8.50;7.80;;;27.20;41.60;;;;;;5059608;28;20786;-71
2021/05/27 07:57:24;;;;;;;7.00;6.50;;;28.40;39.30;;;;;;5049060;28;20487;-70
2021/05/27 07:59:51;;;;;;;6.53;6.33;;;28.20;39.90;;;;;;5042251;28;20467;-71
2021/05/27 08:02:18;;;;;;;6.80;6.40;;;29.90;37.00;;;;;;5046000;28;20444;-70
2021/05/27 08:04:45;;;;;;;6.53;6.10;;;30.40;36.20;;;;;;5051582;28;20444;-72
2021/05/27 08:07:13;;;;;;;7.37;6.63;;;28.40;38.50;;;;;;5048038;28;20451;-70
2021/05/27 08:09:40;;;;;;;7.33;6.90;;;25.90;43.00;;;;;;5060467;28;20578;-72
2021/05/27 08:12:08;;;;;;;5.90;5.70;;;24.50;46.00;;;;;;5059774;28;20440;-73
2021/05/27 08:14:37;;;;;;;6.50;6.20;;;22.90;49.20;;;;;;5049304;28;20445;-71
2021/05/27 08:17:05;;;;;;;6.37;5.97;;;22.10;50.90;;;;;;5059247;28;20833;-71
2021/05/27 08:19:32;;;;;;;5.67;5.47;;;22.30;50.70;;;;;;5059541;28;20604;-70
2021/05/27 08:21:59;;;;;;;5.90;5.70;;;23.00;49.60;;;;;;5060426;28;20451;-71
2021/05/27 08:24:27;;;;;;;6.27;6.00;;;24.40;46.80;;;;;;5052983;28;20473;-73
2021/05/27 08:26:54;;;;;;;6.23;6.03;;;25.90;44.70;;;;;;5059778;28;20429;-72
2021/05/27 08:29:22;;;;;;;6.47;6.07;;;28.70;40.00;;;;;;5058724;28;20423;-72
2021/05/27 08:31:50;;;;;;;6.37;5.83;;;28.10;38.80;;;;;;5051833;28;20446;-73
2021/05/27 08:34:19;;;;;;;7.20;6.63;;;27.40;39.00;;;;;;5053823;28;20428;-71
2021/05/27 08:36:46;;;;;;;6.50;6.30;;;27.80;39.30;;;;;;5049876;28;20490;-70
2021/05/27 08:39:15;;;;;;;6.70;6.50;;;31.00;35.70;;;;;;5060137;28;20444;-71
2021/05/27 08:41:44;;;;;;;7.10;6.80;;;32.70;33.70;;;;;;5043740;28;20519;-73
2021/05/27 08:44:12;;;;;;;6.40;6.20;;;33.00;32.10;;;;;;5053821;28;20441;-70
2021/05/27 08:46:40;;;;;;;6.53;6.33;;;32.50;32.50;;;;;;5049706;28;20445;-70
2021/05/27 08:49:08;;;;;;;7.60;6.97;;;32.50;32.50;;;;;;5059841;28;20601;-71
2021/05/27 08:51:36;;;;;;;7.90;7.40;;;32.50;31.60;;;;;;5058026;28;20707;-71
2021/05/27 08:54:03;;;;;;;7.10;6.70;;;33.50;31.30;;;;;;5059541;28;20766;-72
2021/05/27 08:56:30;;;;;;;7.30;7.00;;;33.20;30.00;;;;;;5057959;28;20489;-74
2021/05/27 08:58:58;;;;;;;7.50;7.00;;;31.00;32.60;;;;;;5053722;28;20676;-77
2021/05/27 09:01:25;;;;;;;7.27;7.07;;;31.30;33.00;;;;;;5051714;28;20453;-75
2021/05/27 09:03:56;;;;;;;7.10;6.80;;;33.20;31.00;;;;;;5045320;28;20443;-76
2021/05/27 09:06:25;;;;;;;6.77;6.57;;;33.40;30.30;;;;;;5059304;28;20451;-72
2021/05/27 09:09:07;;;;;;;6.60;6.40;;;32.70;30.90;;;;;;5055484;28;20454;-72
2021/05/27 09:11:38;;;;;;;6.63;6.30;;;31.60;32.50;;;;;;5041214;28;20818;-74
2021/05/27 09:14:05;;;;;;;5.87;5.57;;;29.80;34.40;;;;;;5058572;28;20437;-72
2021/05/27 09:16:33;;;;;;;7.30;7.00;;;27.70;36.60;;;;;;5058916;28;20818;-71
2021/05/27 09:19:18;;;;;;;7.57;7.03;;;26.20;39.60;;;;;;5058088;28;20768;-73
2021/05/27 09:21:46;;;;;;;5.10;4.90;;;25.40;42.20;;;;;;5058965;28;20455;-74
2021/05/27 09:24:14;;;;;;;5.03;4.83;;;26.60;38.40;;;;;;5055491;28;20499;-73
2021/05/27 09:26:56;;;;;;;5.63;5.23;;;26.00;39.10;;;;;;5044965;28;20513;-75
2021/05/27 09:29:27;;;;;;;4.77;4.60;;;24.40;41.80;;;;;;5058185;28;20763;-72
2021/05/27 09:32:04;;;;;;;5.50;5.00;;;23.20;44.50;;;;;;5047278;28;20877;-71
2021/05/27 09:34:46;;;;;;;7.40;5.60;;;22.60;46.50;;;;;;5050058;28;20510;-75
2021/05/27 09:37:22;;;;;;;4.53;4.40;;;22.20;46.80;;;;;;5058669;28;20481;-74
2021/05/27 09:39:51;;;;;;;5.30;5.10;;;22.20;46.90;;;;;;5076301;28;20494;-70
2021/05/27 09:42:18;;;;;;;5.67;5.37;;;22.20;46.90;;;;;;5057128;28;20476;-73
2021/05/27 09:44:46;;;;;;;6.23;5.73;;;22.00;48.00;;;;;;5046962;28;20412;-73
2021/05/27 09:47:13;;;;;;;5.47;5.17;;;21.50;49.90;;;;;;5051334;28;20443;-72
2021/05/27 09:50:01;;;;;;;4.87;4.57;;;20.90;50.90;;;;;;5057568;28;20470;-72
2021/05/27 09:52:42;;;;;;;5.17;4.90;;;20.60;52.00;;;;;;5058591;28;20427;-72
2021/05/27 09:55:16;;;;;;;6.00;5.60;;;20.30;52.50;;;;;;5058103;28;20424;-73
2021/05/27 09:57:45;;;;;;;4.93;4.50;;;20.20;53.20;;;;;;5058108;28;20872;-73
2021/05/27 10:00:21;;;;;;;5.20;4.80;;;20.10;52.80;;;;;;5056097;28;20415;-72
2021/05/27 10:02:49;;;;;;;5.03;4.83;;;20.30;53.00;;;;;;5056988;28;20461;-76
2021/05/27 10:05:16;;;;;;;5.50;4.87;;;20.30;52.80;;;;;;5055725;28;20416;-72
2021/05/27 10:07:50;;;;;;;4.90;4.70;;;20.70;52.40;;;;;;5055156;28;20420;-75
2021/05/27 10:10:37;;;;;;;4.57;4.47;;;21.30;51.10;;;;;;5052855;28;20425;-72
2021/05/27 10:13:06;;;;;;;5.40;5.00;;;21.80;48.80;;;;;;5058441;28;20440;-72
2021/05/27 10:15:34;;;;;;;4.63;4.43;;;21.80;47.80;;;;;;5053985;28;20762;-73
2021/05/27 10:18:05;;;;;;;4.70;4.50;;;21.40;50.00;;;;;;5047760;28;20453;-71
2021/05/27 10:20:33;;;;;;;4.00;3.90;;;20.90;50.10;;;;;;5057753;28;20658;-73
2021/05/27 10:23:01;;;;;;;4.80;4.60;;;20.70;51.50;;;;;;5049550;28;20413;-73
2021/05/27 10:25:29;;;;;;;5.10;4.80;;;20.40;51.50;;;;;;5047300;28;20491;-74
2021/05/27 10:28:00;;;;;;;4.90;4.70;;;20.70;51.40;;;;;;5047592;28;20433;-76
2021/05/27 10:30:27;;;;;;;5.87;5.20;;;21.00;50.90;;;;;;5045332;28;20424;-74
2021/05/27 10:33:04;;;;;;;4.50;4.30;;;20.90;50.60;;;;;;5044170;28;20420;-71
2021/05/27 10:35:51;;;;;;;5.00;4.80;;;20.40;51.60;;;;;;5057986;28;20466;-72
2021/05/27 10:41:22;;;;;;;5.00;4.80;;;20.80;52.30;;;;;;5058322;28;20440;-74
2021/05/27 10:43:58;;;;;;;4.70;4.50;;;20.90;50.80;;;;;;5057823;28;20412;-74
2021/05/27 10:46:26;;;;;;;5.30;5.10;;;21.40;50.70;;;;;;5054714;28;20422;-72
2021/05/27 10:48:54;;;;;;;4.60;4.40;;;22.10;49.90;;;;;;5050345;28;20448;-72
2021/05/27 10:54:29;;;;;;;5.13;4.87;;;22.90;47.80;;;;;;5047686;28;20476;-72
2021/05/27 10:56:57;;;;;;;4.77;4.57;;;22.50;48.50;;;;;;5070719;28;20457;-73
2021/05/27 10:59:32;;;;;;;4.80;4.60;;;22.00;49.60;;;;;;5057258;28;20602;-72
2021/05/27 11:02:00;;;;;;;4.30;4.10;;;21.80;50.40;;;;;;5045074;28;20540;-73
2021/05/27 11:04:35;;;;;;;4.23;4.10;;;21.80;49.90;;;;;;5056420;28;20455;-71
2021/05/27 11:07:26;;;;;;;7.93;5.60;;;22.30;49.30;;;;;;5057042;28;20861;-71
2021/05/27 11:09:54;;;;;;;5.10;4.70;;;22.80;48.90;;;;;;5054221;28;20809;-72
2021/05/27 11:12:26;;;;;;;4.67;4.57;;;22.90;48.20;;;;;;5056108;28;20426;-72
2021/05/27 11:14:53;;;;;;;4.67;4.47;;;23.30;47.80;;;;;;5057408;28;20444;-73
2021/05/27 11:17:24;;;;;;;4.60;4.40;;;23.70;46.70;;;;;;5045752;28;20697;-74
2021/05/27 11:20:08;;;;;;;4.93;4.53;;;23.90;46.50;;;;;;5054347;28;20418;-72
2021/05/27 11:25:08;;;;;;;6.33;5.10;;;23.30;47.20;;;;;;5056925;28;20444;-71
2021/05/27 11:27:55;;;;;;;5.10;4.90;;;24.00;47.40;;;;;;5055740;28;20746;-72
2021/05/27 11:30:44;;;;;;;5.00;4.80;;;24.30;46.20;;;;;;5056251;28;20451;-72
2021/05/27 11:33:28;;;;;;;4.83;4.63;;;24.40;45.80;;;;;;5047306;28;20471;-72
2021/05/27 11:35:57;;;;;;;5.10;4.90;;;24.00;45.80;;;;;;5054326;28;20533;-72
2021/05/27 11:38:35;;;;;;;4.87;4.67;;;23.60;46.80;;;;;;5056250;28;20427;-71
2021/05/27 11:41:10;;;;;;;4.60;4.50;;;23.10;48.40;;;;;;5049959;28;20699;-74
2021/05/27 11:43:40;;;;;;;5.83;5.43;;;22.60;48.70;;;;;;5053908;28;20444;-70
2021/05/27 11:46:12;;;;;;;4.77;4.47;;;22.20;49.40;;;;;;5057039;28;20462;-72
2021/05/27 11:48:43;;;;;;;4.57;4.37;;;21.90;50.10;;;;;;5044937;28;20443;-72
2021/05/27 11:51:18;;;;;;;4.50;4.40;;;21.90;50.00;;;;;;5057801;28;20447;-73
2021/05/27 11:54:00;;;;;;;5.97;5.43;;;22.00;49.30;;;;;;5044896;28;20417;-72
2021/05/27 11:56:41;;;;;;;4.90;4.70;;;22.00;49.20;;;;;;5047923;28;20461;-72
2021/05/27 11:59:20;;;;;;;5.30;5.00;;;22.00;49.30;;;;;;5057026;28;20416;-73
2021/05/27 12:02:00;;;;;;;4.93;4.60;;;22.10;49.50;;;;;;5052762;28;20485;-72
2021/05/27 12:04:29;;;;;;;5.20;4.90;;;22.00;50.10;;;;;;5054801;28;20407;-73
2021/05/27 12:07:11;;;;;;;5.37;5.07;;;21.90;49.50;;;;;;5050753;28;20464;-74
2021/05/27 12:09:39;;;;;;;5.50;5.20;;;21.80;50.30;;;;;;5055290;28;20459;-74
2021/05/27 12:12:17;;;;;;;5.53;5.23;;;21.40;51.10;;;;;;5056343;28;20443;-72
2021/05/27 12:14:52;;;;;;;4.73;4.53;;;20.70;52.30;;;;;;5053515;28;20445;-73
2021/05/27 12:17:27;;;;;;;5.03;4.83;;;20.40;53.30;;;;;;5078589;28;20465;-74
2021/05/27 12:20:09;;;;;;;5.10;4.80;;;20.10;54.40;;;;;;5049699;28;20609;-72
2021/05/27 12:22:52;;;;;;;5.67;5.37;;;20.10;54.50;;;;;;5059787;28;20415;-72
2021/05/27 12:25:21;;;;;;;5.77;4.60;;;20.00;55.30;;;;;;5055723;28;20489;-72
2021/05/27 12:27:50;;;;;;;6.80;6.20;;;19.80;54.60;;;;;;5058284;28;20775;-74
2021/05/27 12:30:24;;;;;;;4.80;4.60;;;19.80;55.70;;;;;;5051211;28;20766;-73
2021/05/27 12:32:53;;;;;;;5.27;4.87;;;20.00;55.90;;;;;;5053613;28;20419;-75
2021/05/27 12:35:23;;;;;;;5.07;4.77;;;20.40;54.80;;;;;;5052010;28;20444;-72
2021/05/27 12:37:54;;;;;;;4.70;4.33;;;20.70;53.70;;;;;;5058852;28;20479;-73
2021/05/27 12:40:40;;;;;;;5.00;4.60;;;20.70;52.70;;;;;;5052506;28;20432;-72
2021/05/27 12:43:29;;;;;;;7.33;4.27;;;20.70;52.50;;;;;;5052331;28;20483;-71
2021/05/27 12:45:56;;;;;;;4.70;4.50;;;20.90;52.80;;;;;;5080705;28;20649;-71
2021/05/27 12:48:25;;;;;;;4.63;4.43;;;21.40;51.80;;;;;;5057591;28;20493;-72
2021/05/27 12:51:02;;;;;;;5.17;4.77;;;21.70;51.30;;;;;;5075434;28;20871;-73
2021/05/27 12:53:42;;;;;;;4.80;4.50;;;22.00;51.90;;;;;;5047874;28;20448;-71
2021/05/27 12:56:18;;;;;;;5.13;4.77;;;22.40;50.80;;;;;;5053407;28;20442;-71
2021/05/27 12:58:48;;;;;;;4.53;4.33;;;22.70;49.70;;;;;;5080082;28;20457;-71
2021/05/27 13:01:29;;;;;;;7.23;5.00;;;22.50;49.30;;;;;;5052126;28;20792;-73
2021/05/27 13:03:59;;;;;;;6.40;6.00;;;23.00;49.30;;;;;;5048339;28;20449;-73
2021/05/27 13:06:34;;;;;;;5.13;4.70;;;23.10;49.20;;;;;;5059609;28;20423;-73
2021/05/27 13:09:09;;;;;;;4.57;4.30;;;23.30;48.90;;;;;;5048027;28;20415;-72
2021/05/27 13:11:43;;;;;;;4.53;4.33;;;23.30;48.70;;;;;;5043583;28;20445;-72
2021/05/27 13:14:11;;;;;;;5.93;5.40;;;23.00;49.80;;;;;;5058080;28;20839;-73